createdAt,value
2019-06-07T00:01:54.739Z,53.25
2019-06-07T00:04:24.315Z,53.38
2019-06-07T00:06:53.647Z,53.50
2019-06-07T00:09:22.989Z,53.62
2019-06-07T00:11:52.206Z,53.84
2019-06-07T00:14:21.480Z,53.81
2019-06-07T00:16:51.126Z,53.94
2019-06-07T00:19:20.389Z,54.12
2019-06-07T00:24:22.033Z,54.27
2019-06-07T00:26:59.405Z,54.35
2019-06-07T00:29:24.019Z,54.44
2019-06-07T00:31:53.243Z,54.58
2019-06-07T00:34:24.816Z,54.56
2019-06-07T00:36:53.881Z,54.63
2019-06-07T00:39:25.887Z,54.74
2019-06-07T00:41:54.519Z,54.57
2019-06-07T00:44:23.754Z,54.60
2019-06-07T00:46:53.475Z,54.72
2019-06-07T00:49:38.222Z,54.63
2019-06-07T00:51:54.026Z,54.67
2019-06-07T00:54:25.177Z,54.63
2019-06-07T00:56:56.108Z,54.51
2019-06-07T00:59:29.626Z,54.42
2019-06-07T01:01:57.024Z,54.86
2019-06-07T01:04:27.211Z,54.85
2019-06-07T01:06:57.239Z,54.89
2019-06-07T01:09:26.448Z,54.79
2019-06-07T01:11:55.773Z,54.89
2019-06-07T01:14:28.134Z,54.97
2019-06-07T01:17:05.880Z,55.13
2019-06-07T01:19:27.922Z,54.91
2019-06-07T01:21:58.080Z,55.09
2019-06-07T01:24:28.096Z,55.03
2019-06-07T01:26:58.310Z,55.21
2019-06-07T01:29:30.923Z,55.95
2019-06-07T01:31:58.845Z,56.60
2019-06-07T01:34:28.876Z,56.79
2019-06-07T01:36:59.081Z,57.03
2019-06-07T01:39:31.089Z,57.07
2019-06-07T01:42:20.429Z,56.80
2019-06-07T01:44:50.292Z,56.99
2019-06-07T01:47:21.242Z,56.84
2019-06-07T01:49:50.508Z,56.94
2019-06-07T01:52:23.504Z,57.33
2019-06-07T01:54:57.870Z,57.43
2019-06-07T01:57:38.439Z,57.40
2019-06-07T01:59:52.639Z,57.18
2019-06-07T02:02:23.469Z,57.37
2019-06-07T02:04:53.987Z,57.52
2019-06-07T02:07:25.762Z,57.58
2019-06-07T02:09:54.595Z,57.74
2019-06-07T02:12:31.990Z,57.77
2019-06-07T02:14:54.788Z,57.84
2019-06-07T02:17:26.323Z,57.85
2019-06-07T02:19:55.057Z,57.77
2019-06-07T02:22:25.767Z,57.78
2019-06-07T02:25:34.726Z,57.97
2019-06-07T02:27:27.501Z,58.19
2019-06-07T02:29:57.618Z,58.42
2019-06-07T02:32:29.759Z,58.33
2019-06-07T02:34:57.868Z,58.22
2019-06-07T02:37:31.579Z,58.12
2019-06-07T02:39:58.760Z,58.21
2019-06-07T02:42:35.517Z,58.42
2019-06-07T02:45:00.930Z,58.74
2019-06-07T02:47:32.112Z,59.02
2019-06-07T02:50:01.126Z,59.21
2019-06-07T02:52:35.484Z,59.26
2019-06-07T02:55:01.692Z,59.48
2019-06-07T02:57:36.943Z,59.56
2019-06-07T03:02:41.246Z,59.55
2019-06-07T03:05:07.196Z,59.57
2019-06-07T03:08:16.762Z,59.60
2019-06-07T03:11:25.828Z,59.93
2019-06-07T03:17:43.137Z,60.03
2019-06-07T03:26:17.793Z,59.89
2019-06-07T03:28:47.271Z,59.97
2019-06-07T03:31:16.801Z,60.08
2019-06-07T03:33:46.089Z,60.11
2019-06-07T03:36:23.813Z,60.03
2019-06-07T03:38:46.641Z,60.23
2019-06-07T03:41:15.958Z,60.33
2019-06-07T03:43:45.214Z,60.29
2019-06-07T03:46:14.424Z,60.09
2019-06-07T03:48:43.813Z,59.97
2019-06-07T03:51:24.687Z,59.87
2019-06-07T03:53:44.487Z,59.96
2019-06-07T03:56:13.963Z,59.92
2019-06-07T03:58:49.869Z,59.93
2019-06-07T04:01:16.390Z,59.94
2019-06-07T04:03:51.376Z,59.89
2019-06-07T04:06:16.939Z,59.90
2019-06-07T04:08:46.438Z,59.72
2019-06-07T04:11:16.049Z,59.88
2019-06-07T04:13:45.255Z,59.43
2019-06-07T04:16:14.511Z,58.99
2019-06-07T04:18:43.763Z,58.97
2019-06-07T04:21:13.018Z,58.87
2019-06-07T04:23:45.790Z,58.98
2019-06-07T04:26:14.401Z,58.95
2019-06-07T04:31:14.523Z,59.09
2019-06-07T04:33:44.031Z,59.17
2019-06-07T04:36:59.194Z,59.13
2019-06-07T04:39:45.439Z,58.87
2019-06-07T04:42:55.461Z,58.68
2019-06-07T04:48:54.085Z,59.13
2019-06-07T04:51:43.771Z,58.59
2019-06-07T04:54:13.037Z,58.58
2019-06-07T04:56:44.620Z,58.90
2019-06-07T04:59:13.763Z,58.70
2019-06-07T05:01:42.960Z,58.64
2019-06-07T05:04:12.236Z,58.67
2019-06-07T05:06:42.655Z,58.57
2019-06-07T05:09:11.919Z,58.50
2019-06-07T05:11:44.915Z,58.58
2019-06-07T05:14:12.130Z,58.02
2019-06-07T05:16:44.264Z,57.58
2019-06-07T05:19:35.261Z,57.86
2019-06-07T05:22:05.057Z,57.63
2019-06-07T05:24:37.658Z,57.36
2019-06-07T05:27:05.030Z,57.31
2019-06-07T05:29:38.393Z,57.14
2019-06-07T05:32:06.349Z,57.05
2019-06-07T05:34:36.930Z,56.65
2019-06-07T05:37:11.978Z,56.39
2019-06-07T05:39:40.415Z,55.91
2019-06-07T05:42:09.718Z,54.95
2019-06-07T05:44:43.511Z,54.59
2019-06-07T05:47:11.117Z,54.36
2019-06-07T05:49:43.886Z,54.28
2019-06-07T05:52:30.333Z,53.76
2019-06-07T05:55:00.251Z,53.74
2019-06-07T05:57:29.862Z,53.77
2019-06-07T05:59:59.191Z,53.24
2019-06-07T06:02:28.396Z,53.23
2019-06-07T06:04:57.598Z,52.75
2019-06-07T06:07:27.212Z,52.23
2019-06-07T06:09:56.383Z,51.80
2019-06-07T06:12:35.307Z,51.87
2019-06-07T06:14:56.577Z,51.99
2019-06-07T06:17:26.211Z,51.53
2019-06-07T06:19:55.497Z,51.39
2019-06-07T06:22:24.769Z,51.73
2019-06-07T06:25:29.864Z,51.60
2019-06-07T06:28:03.454Z,51.37
2019-06-07T06:29:56.963Z,50.60
2019-06-07T06:32:51.087Z,50.83
2019-06-07T06:34:57.556Z,50.40
2019-06-07T06:37:26.812Z,49.86
2019-06-07T06:39:56.048Z,49.41
2019-06-07T06:42:25.655Z,50.12
2019-06-07T06:44:55.360Z,50.16
2019-06-07T06:47:24.636Z,49.37
2019-06-07T06:49:54.548Z,49.28
2019-06-07T06:52:24.839Z,49.00
2019-06-07T06:55:00.502Z,49.04
2019-06-07T06:57:25.055Z,49.30
2019-06-07T06:59:54.269Z,49.46
2019-06-07T07:02:23.960Z,49.30
2019-06-07T07:04:54.043Z,49.55
2019-06-07T07:08:04.107Z,49.20
2019-06-07T07:11:17.970Z,49.42
2019-06-07T07:16:22.453Z,49.06
2019-06-07T07:18:54.595Z,49.21
2019-06-07T07:21:22.713Z,48.65
2019-06-07T07:24:14.751Z,48.15
2019-06-07T07:26:22.996Z,47.81
2019-06-07T07:28:56.821Z,48.29
2019-06-07T07:31:23.524Z,48.02
2019-06-07T07:36:38.787Z,48.15
2019-06-07T07:39:03.500Z,47.82
2019-06-07T07:41:26.979Z,47.66
2019-06-07T07:44:05.206Z,47.61
2019-06-07T07:46:29.691Z,47.46
2019-06-07T07:48:58.141Z,47.33
2019-06-07T07:51:27.766Z,46.76
2019-06-07T07:54:09.628Z,46.57
2019-06-07T07:56:27.991Z,46.40
2019-06-07T07:59:02.104Z,46.44
2019-06-07T08:01:28.653Z,46.38
2019-06-07T08:03:58.756Z,46.34
2019-06-07T08:06:28.864Z,46.57
2019-06-07T08:08:59.114Z,46.59
2019-06-07T08:11:29.195Z,46.59
2019-06-07T08:13:58.912Z,46.31
2019-06-07T08:16:29.341Z,45.90
2019-06-07T08:19:04.193Z,45.57
2019-06-07T08:21:29.912Z,45.37
2019-06-07T08:24:04.126Z,45.13
2019-06-07T08:26:30.898Z,45.08
2019-06-07T08:29:02.896Z,45.37
2019-06-07T08:31:31.352Z,45.37
2019-06-07T08:34:01.049Z,45.21
2019-06-07T08:36:42.109Z,44.74
2019-06-07T08:39:07.380Z,44.45
2019-06-07T08:41:32.465Z,44.57
2019-06-07T08:44:21.792Z,44.69
2019-06-07T08:46:32.646Z,44.46
2019-06-07T08:49:04.622Z,44.64
2019-06-07T08:51:32.868Z,44.65
2019-06-07T08:54:21.141Z,44.48
2019-06-07T08:56:33.497Z,44.38
2019-06-07T08:59:10.812Z,44.22
2019-06-07T09:01:33.673Z,43.82
2019-06-07T09:04:09.913Z,43.92
2019-06-07T09:07:02.446Z,44.17
2019-06-07T09:09:44.273Z,44.10
2019-06-07T09:12:13.840Z,44.18
2019-06-07T09:14:59.472Z,44.22
2019-06-07T09:17:14.036Z,44.06
2019-06-07T09:19:43.620Z,44.17
2019-06-07T09:22:13.342Z,43.68
2019-06-07T09:24:43.056Z,43.60
2019-06-07T09:30:47.346Z,43.87
2019-06-07T09:33:16.554Z,43.74
2019-06-07T09:35:46.292Z,43.14
2019-06-07T09:38:25.150Z,43.01
2019-06-07T09:40:46.745Z,42.70
2019-06-07T09:44:00.090Z,43.18
2019-06-07T09:45:58.708Z,43.55
2019-06-07T09:49:09.876Z,43.78
2019-06-07T09:51:00.902Z,43.54
2019-06-07T09:53:30.735Z,43.76
2019-06-07T09:56:03.507Z,43.73
2019-06-07T09:58:51.303Z,43.27
2019-06-07T10:03:50.148Z,43.11
2019-06-07T10:06:19.375Z,43.26
2019-06-07T10:11:20.513Z,42.92
2019-06-07T10:13:49.798Z,43.28
2019-06-07T10:16:19.036Z,43.59
2019-06-07T10:18:48.331Z,43.71
2019-06-07T10:21:17.594Z,43.08
2019-06-07T10:23:47.132Z,42.67
2019-06-07T10:26:17.144Z,42.51
2019-06-07T10:28:46.354Z,41.73
2019-06-07T10:31:16.067Z,42.26
2019-06-07T10:33:45.291Z,42.74
2019-06-07T10:36:14.588Z,43.24
2019-06-07T10:38:44.256Z,43.30
2019-06-07T10:41:14.180Z,43.21
2019-06-07T10:43:43.411Z,41.91
2019-06-07T10:46:12.715Z,41.90
2019-06-07T10:48:42.263Z,41.59
2019-06-07T10:51:14.469Z,41.90
2019-06-07T10:53:43.329Z,41.87
2019-06-07T10:56:13.349Z,41.78
2019-06-07T10:58:43.875Z,42.05
2019-06-07T11:01:14.423Z,42.21
2019-06-07T11:03:44.469Z,42.34
2019-06-07T11:06:14.215Z,42.48
2019-06-07T11:08:44.772Z,42.29
2019-06-07T11:11:14.428Z,42.14
2019-06-07T11:13:45.034Z,42.24
2019-06-07T11:16:15.701Z,42.30
2019-06-07T11:18:45.507Z,42.30
2019-06-07T11:21:15.193Z,42.08
2019-06-07T11:23:44.858Z,42.04
2019-06-07T11:26:14.493Z,41.83
2019-06-07T11:28:45.141Z,41.85
2019-06-07T11:31:15.096Z,41.78
2019-06-07T11:33:45.685Z,41.87
2019-06-07T11:36:15.489Z,41.97
2019-06-07T11:38:45.133Z,41.90
2019-06-07T11:41:15.905Z,42.14
2019-06-07T11:43:45.917Z,42.06
2019-06-07T11:46:15.301Z,41.24
2019-06-07T11:48:44.961Z,40.91
2019-06-07T11:51:14.894Z,40.65
2019-06-07T11:53:45.160Z,40.69
2019-06-07T11:56:14.407Z,40.63
2019-06-07T11:58:44.070Z,40.50
2019-06-07T12:01:14.976Z,40.03
2019-06-07T12:03:44.297Z,39.77
2019-06-07T12:09:09.016Z,39.96
2019-06-07T12:11:39.680Z,39.90
2019-06-07T12:14:08.895Z,39.77
2019-06-07T12:16:38.236Z,39.48
2019-06-07T12:19:07.416Z,39.43
2019-06-07T12:21:36.752Z,39.27
2019-06-07T12:24:05.999Z,39.81
2019-06-07T12:26:35.269Z,39.90
2019-06-07T12:31:59.914Z,39.51
2019-06-07T12:34:29.166Z,39.05
2019-06-07T12:36:58.364Z,39.10
2019-06-07T12:39:27.765Z,38.59
2019-06-07T12:41:57.033Z,38.76
2019-06-07T12:44:26.293Z,38.89
2019-06-07T12:46:55.507Z,38.60
2019-06-07T12:49:24.787Z,38.65
2019-06-07T12:51:54.607Z,38.57
2019-06-07T12:54:24.179Z,37.23
2019-06-07T12:56:53.391Z,37.00
2019-06-07T13:02:19.985Z,37.76
2019-06-07T13:04:48.792Z,37.81
2019-06-07T13:07:18.553Z,37.36
2019-06-07T13:09:49.362Z,37.47
2019-06-07T13:12:19.679Z,37.54
2019-06-07T13:14:49.591Z,37.28
2019-06-07T13:17:20.333Z,36.58
2019-06-07T13:19:50.093Z,36.50
2019-06-07T13:22:20.372Z,34.42
2019-06-07T13:24:50.773Z,31.61
2019-06-07T13:27:20.357Z,29.22
2019-06-07T13:29:50.968Z,28.37
2019-06-07T13:32:21.460Z,28.97
2019-06-07T13:34:51.161Z,29.68
2019-06-07T13:37:21.128Z,30.55
2019-06-07T13:39:51.706Z,31.31
2019-06-07T13:42:20.965Z,32.20
2019-06-07T13:44:50.175Z,33.52
2019-06-07T13:47:21.116Z,34.17
2019-06-07T13:49:50.412Z,34.15
2019-06-07T13:52:19.690Z,34.56
2019-06-07T13:54:48.870Z,35.22
2019-06-07T13:57:18.126Z,35.50
2019-06-07T13:59:48.067Z,35.93
2019-06-07T14:02:18.544Z,35.95
2019-06-07T14:04:48.252Z,36.06
2019-06-07T14:07:19.032Z,35.75
2019-06-07T14:09:49.045Z,35.13
2019-06-07T14:12:19.405Z,35.12
2019-06-07T14:14:49.224Z,35.14
2019-06-07T14:17:19.231Z,35.24
2019-06-07T14:19:48.418Z,34.01
2019-06-07T14:22:17.718Z,34.44
2019-06-07T14:24:47.206Z,34.57
2019-06-07T14:27:16.473Z,34.51
2019-06-07T14:29:45.709Z,33.55
2019-06-07T14:32:14.961Z,32.20
2019-06-07T14:34:44.506Z,32.58
2019-06-07T14:37:13.785Z,32.56
2019-06-07T14:39:42.985Z,32.02
2019-06-07T14:42:12.251Z,32.98
2019-06-07T14:44:41.467Z,33.00
2019-06-07T14:47:10.774Z,32.30
2019-06-07T14:49:40.266Z,31.57
2019-06-07T14:52:09.487Z,31.48
2019-06-07T14:54:39.444Z,31.46
2019-06-07T14:57:09.647Z,30.91
2019-06-07T14:59:38.922Z,30.67
2019-06-07T15:02:08.114Z,31.39
2019-06-07T15:05:16.757Z,31.17
2019-06-07T15:07:45.943Z,31.25
2019-06-07T15:10:15.195Z,30.32
2019-06-07T15:15:34.659Z,30.49
2019-06-07T15:18:05.286Z,30.52
2019-06-07T15:20:36.284Z,30.32
2019-06-07T15:23:05.732Z,30.80
2019-06-07T15:25:35.580Z,30.63
2019-06-07T15:28:06.320Z,30.32
2019-06-07T15:30:35.771Z,30.04
2019-06-07T15:33:05.071Z,30.02
2019-06-07T15:35:36.031Z,29.77
2019-06-07T15:38:05.636Z,29.51
2019-06-07T15:40:35.325Z,29.31
2019-06-07T15:43:06.466Z,29.27
2019-06-07T15:45:35.737Z,28.72
2019-06-07T15:48:04.990Z,28.50
2019-06-07T15:50:34.383Z,28.03
2019-06-07T15:53:03.950Z,28.04
2019-06-07T15:55:37.670Z,27.83
2019-06-07T15:58:04.624Z,27.76
2019-06-07T16:00:35.326Z,27.49
2019-06-07T16:03:04.833Z,27.32
2019-06-07T16:05:34.333Z,26.76
2019-06-07T16:08:05.438Z,26.01
2019-06-07T16:10:34.730Z,25.84
2019-06-07T16:13:03.947Z,25.35
2019-06-07T16:15:33.187Z,24.32
2019-06-07T16:18:02.809Z,22.47
2019-06-07T16:20:33.260Z,21.00
2019-06-07T16:23:03.131Z,19.98
2019-06-07T16:25:33.870Z,19.53
2019-06-07T16:28:03.677Z,18.28
2019-06-07T16:30:34.247Z,17.81
2019-06-07T16:33:03.945Z,17.48
2019-06-07T16:35:33.137Z,16.83
2019-06-07T16:38:02.795Z,17.02
2019-06-07T16:40:31.994Z,16.79
2019-06-07T16:43:16.141Z,16.09
2019-06-07T16:45:32.472Z,15.94
2019-06-07T16:48:01.735Z,15.85
2019-06-07T16:50:31.066Z,16.06
2019-06-07T16:53:00.707Z,16.15
2019-06-07T16:55:29.901Z,15.64
2019-06-07T16:57:59.154Z,15.43
2019-06-07T17:03:37.283Z,15.56
2019-06-07T17:06:07.880Z,15.56
2019-06-07T17:08:38.002Z,15.80
2019-06-07T17:11:08.505Z,15.99
2019-06-07T17:13:38.152Z,16.07
2019-06-07T17:16:08.685Z,16.74
2019-06-07T17:18:39.038Z,16.41
2019-06-07T17:21:09.201Z,16.72
2019-06-07T17:23:39.191Z,16.67
2019-06-07T17:26:10.125Z,18.48
2019-06-07T17:28:39.690Z,20.64
2019-06-07T17:31:10.314Z,22.98
2019-06-07T17:33:39.830Z,23.13
2019-06-07T17:36:10.914Z,22.29
2019-06-07T17:38:40.457Z,24.26
2019-06-07T17:41:10.333Z,26.33
2019-06-07T17:43:50.536Z,28.68
2019-06-07T17:46:29.960Z,32.13
2019-06-07T17:48:59.639Z,32.13
2019-06-07T17:51:29.135Z,33.66
2019-06-07T17:53:58.396Z,34.76
2019-06-07T17:56:27.591Z,35.48
2019-06-07T17:58:56.808Z,36.27
2019-06-07T18:01:38.433Z,37.02
2019-06-07T18:03:57.410Z,37.39
2019-06-07T18:10:01.661Z,38.26
2019-06-07T18:12:30.937Z,38.93
2019-06-07T18:15:00.526Z,39.51
2019-06-07T18:17:34.460Z,40.03
2019-06-07T18:20:19.639Z,40.23
2019-06-07T18:22:49.087Z,40.59
2019-06-07T18:25:18.713Z,40.95
2019-06-07T18:27:48.551Z,41.22
2019-06-07T18:30:18.098Z,41.90
2019-06-07T18:32:48.754Z,42.20
2019-06-07T18:35:18.717Z,42.26
2019-06-07T18:37:48.918Z,42.54
2019-06-07T18:40:19.308Z,42.74
2019-06-07T18:42:49.173Z,43.13
2019-06-07T18:48:15.591Z,43.87
2019-06-07T18:50:44.836Z,44.28
2019-06-07T18:53:14.792Z,44.63
2019-06-07T18:55:44.065Z,44.82
2019-06-07T18:58:13.582Z,45.17
2019-06-07T19:00:42.854Z,45.56
2019-06-07T19:03:12.437Z,45.90
2019-06-07T19:05:42.005Z,46.25
2019-06-07T19:08:11.200Z,46.34
2019-06-07T19:10:40.453Z,46.60
2019-06-07T19:13:09.678Z,46.68
2019-06-07T19:15:39.225Z,46.86
2019-06-07T19:20:56.674Z,47.41
2019-06-07T19:23:26.217Z,47.49
2019-06-07T19:25:56.339Z,47.78
2019-06-07T19:28:26.755Z,47.80
2019-06-07T19:30:57.157Z,48.06
2019-06-07T19:33:27.264Z,48.20
2019-06-07T19:35:57.507Z,48.32
2019-06-07T19:38:26.985Z,48.53
2019-06-07T19:40:56.349Z,48.65
2019-06-07T19:43:25.844Z,48.93
2019-06-07T19:45:56.194Z,48.81
2019-06-07T19:48:26.627Z,49.15
2019-06-07T19:50:56.843Z,49.50
2019-06-07T19:53:27.156Z,49.85
2019-06-07T19:55:57.097Z,50.02
2019-06-07T19:58:27.682Z,49.96
2019-06-07T20:00:57.586Z,50.28
2019-06-07T20:03:27.914Z,50.19
2019-06-07T20:05:58.078Z,50.43
2019-06-07T20:08:28.163Z,50.45
2019-06-07T20:10:58.439Z,50.54
2019-06-07T20:13:28.854Z,50.70
2019-06-07T20:15:58.780Z,50.86
2019-06-07T20:18:29.147Z,50.65
2019-06-07T20:20:58.601Z,50.66
2019-06-07T20:23:27.905Z,50.92
2019-06-07T20:25:57.524Z,50.74
2019-06-07T20:28:27.173Z,50.92
2019-06-07T20:30:57.608Z,50.96
2019-06-07T20:33:27.810Z,50.70
2019-06-07T20:35:57.022Z,50.77
2019-06-07T20:38:26.248Z,50.90
2019-06-07T20:40:56.945Z,50.59
2019-06-07T20:43:26.870Z,49.48
2019-06-07T20:45:59.278Z,49.13
2019-06-07T20:48:28.004Z,48.38
2019-06-07T20:50:59.323Z,47.86
2019-06-07T20:53:29.024Z,47.36
2019-06-07T20:55:58.564Z,47.13
2019-06-07T20:58:29.245Z,47.16
2019-06-07T21:00:58.869Z,45.79
2019-06-07T21:03:28.099Z,45.26
2019-06-07T21:05:59.222Z,44.81
2019-06-07T21:08:29.038Z,45.08
2019-06-07T21:10:59.874Z,46.38
2019-06-07T21:13:29.534Z,48.14
2019-06-07T21:15:59.989Z,49.92
2019-06-07T21:18:30.091Z,50.73
2019-06-07T21:21:00.291Z,51.67
2019-06-07T21:23:30.374Z,52.11
2019-06-07T21:26:00.758Z,52.49
2019-06-07T21:28:30.642Z,52.63
2019-06-07T21:30:59.855Z,52.26
2019-06-07T21:33:29.119Z,51.89
2019-06-07T21:35:58.719Z,51.91
2019-06-07T21:38:28.006Z,50.25
2019-06-07T21:40:57.201Z,48.77
2019-06-07T21:46:05.523Z,49.82
2019-06-07T21:48:32.771Z,50.25
2019-06-07T21:51:02.228Z,50.93
2019-06-07T21:53:33.425Z,51.26
2019-06-07T21:56:02.949Z,51.73
2019-06-07T21:58:34.007Z,51.87
2019-06-07T22:04:35.576Z,52.57
2019-06-07T22:07:05.309Z,50.62
2019-06-07T22:09:35.840Z,50.58
2019-06-07T22:12:06.020Z,50.26
2019-06-07T22:14:36.404Z,49.82
2019-06-07T22:17:06.140Z,49.46
2019-06-07T22:22:30.129Z,49.01
2019-06-07T22:24:59.400Z,49.25
2019-06-07T22:27:28.615Z,48.99
2019-06-07T22:29:58.233Z,48.77
2019-06-07T22:32:27.736Z,48.72
2019-06-07T22:34:57.356Z,48.81
2019-06-07T22:37:26.586Z,48.42
2019-06-07T22:39:56.474Z,48.42
2019-06-07T22:42:25.689Z,48.20
2019-06-07T22:44:54.907Z,48.39
2019-06-07T22:47:24.575Z,47.90
2019-06-07T22:49:53.793Z,47.87
2019-06-07T22:52:42.141Z,46.87
2019-06-07T22:58:20.085Z,47.43
2019-06-07T23:00:49.647Z,46.95
2019-06-07T23:03:19.179Z,47.33
2019-06-07T23:05:49.850Z,47.62
2019-06-07T23:08:19.177Z,47.56
2019-06-07T23:10:48.894Z,47.26
2019-06-07T23:13:18.149Z,47.31
2019-06-07T23:15:47.416Z,47.40
2019-06-07T23:18:17.695Z,47.46
2019-06-07T23:20:48.324Z,47.69
2019-06-07T23:23:17.955Z,47.71
2019-06-07T23:25:47.176Z,47.28
2019-06-07T23:28:18.741Z,47.26
2019-06-07T23:30:48.716Z,47.32
2019-06-07T23:33:18.858Z,47.28
2019-06-07T23:35:48.897Z,47.52
2019-06-07T23:38:19.179Z,47.24
2019-06-07T23:40:49.816Z,46.98
2019-06-07T23:43:19.604Z,47.24
2019-06-07T23:45:50.452Z,47.31
2019-06-07T23:48:20.103Z,47.76
2019-06-07T23:53:37.888Z,47.77
2019-06-07T23:56:26.167Z,47.62
2019-06-07T23:58:55.818Z,47.62
